Roblin, Canada
Current Conditions -  °F | °C
As of 2:00 PM on Friday 19 Dec 2014 (Local Time) from CYQV Reporting Station
Overcast Overcast  
Wind Chill: 23°   Ceiling: 700
Heat Index: 23°   Visibility: 9mi
Dew Point: 21°   Wind: 0mph
Humidity: 93%   Direction: NA
Pressure: 29.92"   Gusts: NA
Location:  51.23°N, 101.35°W
Report Text: CYQV 192000Z AUTO 00000KT 9SM OVC007 M05/M06 A2992 RMK SLP165
Loading
Personal Weather Stations






























Interactive Weather Map New forecast layout! Learn more

10-Day Weather Forecast

Advertisements
Track Severe Weather on mobile